sensor_id;sensor_type;location;lat;lon;timestamp;P1;durP1;ratioP1;P2;durP2;ratioP2
76953;SDS011;65893;51.698;-0.292;2024-02-26T00:00:12;12.48;;;4.57;;
76953;SDS011;65893;51.698;-0.292;2024-02-26T00:02:39;8.45;;;3.40;;
76953;SDS011;65893;51.698;-0.292;2024-02-26T00:05:07;8.90;;;4.05;;
76953;SDS011;65893;51.698;-0.292;2024-02-26T00:07:33;12.43;;;3.67;;
76953;SDS011;65893;51.698;-0.292;2024-02-26T00:09:59;12.55;;;4.53;;
76953;SDS011;65893;51.698;-0.292;2024-02-26T00:12:25;9.43;;;3.80;;
76953;SDS011;65893;51.698;-0.292;2024-02-26T00:14:51;9.57;;;3.38;;
76953;SDS011;65893;51.698;-0.292;2024-02-26T00:17:18;9.93;;;3.28;;
76953;SDS011;65893;51.698;-0.292;2024-02-26T00:19:44;11.70;;;3.95;;
76953;SDS011;65893;51.698;-0.292;2024-02-26T00:22:10;14.20;;;4.07;;
76953;SDS011;65893;51.698;-0.292;2024-02-26T00:24:36;10.30;;;4.35;;
76953;SDS011;65893;51.698;-0.292;2024-02-26T00:27:02;17.77;;;4.53;;
76953;SDS011;65893;51.698;-0.292;2024-02-26T00:29:28;15.63;;;4.35;;
76953;SDS011;65893;51.698;-0.292;2024-02-26T00:31:55;13.73;;;4.20;;
76953;SDS011;65893;51.698;-0.292;2024-02-26T00:34:21;9.82;;;4.30;;
76953;SDS011;65893;51.698;-0.292;2024-02-26T00:36:47;11.75;;;4.22;;
76953;SDS011;65893;51.698;-0.292;2024-02-26T00:39:13;12.60;;;4.82;;
76953;SDS011;65893;51.698;-0.292;2024-02-26T00:41:40;11.75;;;4.15;;
76953;SDS011;65893;51.698;-0.292;2024-02-26T00:44:06;18.27;;;6.40;;
76953;SDS011;65893;51.698;-0.292;2024-02-26T00:46:32;8.63;;;4.15;;
76953;SDS011;65893;51.698;-0.292;2024-02-26T00:48:58;12.13;;;4.97;;
76953;SDS011;65893;51.698;-0.292;2024-02-26T00:51:25;8.60;;;4.15;;
76953;SDS011;65893;51.698;-0.292;2024-02-26T00:53:51;12.13;;;4.10;;
76953;SDS011;65893;51.698;-0.292;2024-02-26T00:56:17;10.95;;;4.35;;
76953;SDS011;65893;51.698;-0.292;2024-02-26T00:58:43;9.80;;;4.90;;
76953;SDS011;65893;51.698;-0.292;2024-02-26T01:01:09;11.02;;;4.72;;
76953;SDS011;65893;51.698;-0.292;2024-02-26T01:03:35;12.90;;;5.10;;
76953;SDS011;65893;51.698;-0.292;2024-02-26T01:06:01;10.68;;;4.82;;
76953;SDS011;65893;51.698;-0.292;2024-02-26T01:08:27;15.13;;;5.47;;
76953;SDS011;65893;51.698;-0.292;2024-02-26T01:10:53;11.57;;;4.72;;
76953;SDS011;65893;51.698;-0.292;2024-02-26T01:13:19;14.27;;;5.07;;
76953;SDS011;65893;51.698;-0.292;2024-02-26T01:15:45;11.88;;;3.67;;
76953;SDS011;65893;51.698;-0.292;2024-02-26T01:18:11;10.90;;;5.20;;
76953;SDS011;65893;51.698;-0.292;2024-02-26T01:20:37;15.93;;;5.95;;
76953;SDS011;65893;51.698;-0.292;2024-02-26T01:23:03;12.68;;;4.45;;
76953;SDS011;65893;51.698;-0.292;2024-02-26T01:25:30;9.38;;;4.55;;
76953;SDS011;65893;51.698;-0.292;2024-02-26T01:27:56;9.55;;;3.55;;
76953;SDS011;65893;51.698;-0.292;2024-02-26T01:30:22;15.13;;;4.20;;
76953;SDS011;65893;51.698;-0.292;2024-02-26T01:32:48;12.70;;;4.35;;
76953;SDS011;65893;51.698;-0.292;2024-02-26T01:35:14;14.43;;;3.80;;
76953;SDS011;65893;51.698;-0.292;2024-02-26T01:37:40;11.23;;;4.82;;
76953;SDS011;65893;51.698;-0.292;2024-02-26T01:40:07;9.68;;;4.93;;
76953;SDS011;65893;51.698;-0.292;2024-02-26T01:42:34;11.02;;;4.55;;
76953;SDS011;65893;51.698;-0.292;2024-02-26T01:45:00;13.98;;;5.05;;
76953;SDS011;65893;51.698;-0.292;2024-02-26T01:47:27;11.55;;;4.55;;
76953;SDS011;65893;51.698;-0.292;2024-02-26T01:49:53;10.68;;;4.18;;
76953;SDS011;65893;51.698;-0.292;2024-02-26T01:52:19;11.93;;;4.47;;
76953;SDS011;65893;51.698;-0.292;2024-02-26T01:54:47;10.15;;;4.35;;
76953;SDS011;65893;51.698;-0.292;2024-02-26T01:57:13;12.52;;;3.65;;
76953;SDS011;65893;51.698;-0.292;2024-02-26T01:59:39;9.63;;;3.97;;
76953;SDS011;65893;51.698;-0.292;2024-02-26T02:02:06;11.38;;;4.18;;
76953;SDS011;65893;51.698;-0.292;2024-02-26T02:04:36;12.07;;;3.83;;
76953;SDS011;65893;51.698;-0.292;2024-02-26T02:07:02;10.45;;;4.28;;
76953;SDS011;65893;51.698;-0.292;2024-02-26T02:09:28;12.05;;;4.07;;
76953;SDS011;65893;51.698;-0.292;2024-02-26T02:11:54;10.00;;;2.97;;
76953;SDS011;65893;51.698;-0.292;2024-02-26T02:14:21;12.43;;;3.92;;
76953;SDS011;65893;51.698;-0.292;2024-02-26T02:16:47;8.70;;;3.72;;
76953;SDS011;65893;51.698;-0.292;2024-02-26T02:19:13;7.70;;;2.75;;
76953;SDS011;65893;51.698;-0.292;2024-02-26T02:21:39;10.40;;;3.10;;
76953;SDS011;65893;51.698;-0.292;2024-02-26T02:24:05;13.48;;;3.60;;
76953;SDS011;65893;51.698;-0.292;2024-02-26T02:26:31;8.98;;;2.67;;
76953;SDS011;65893;51.698;-0.292;2024-02-26T02:28:57;11.88;;;3.33;;
76953;SDS011;65893;51.698;-0.292;2024-02-26T02:31:24;10.18;;;3.42;;
76953;SDS011;65893;51.698;-0.292;2024-02-26T02:33:50;9.65;;;2.83;;
76953;SDS011;65893;51.698;-0.292;2024-02-26T02:36:16;11.35;;;2.80;;
76953;SDS011;65893;51.698;-0.292;2024-02-26T02:38:51;9.77;;;4.00;;
76953;SDS011;65893;51.698;-0.292;2024-02-26T02:41:18;7.97;;;2.85;;
76953;SDS011;65893;51.698;-0.292;2024-02-26T02:43:44;11.15;;;2.90;;
76953;SDS011;65893;51.698;-0.292;2024-02-26T02:46:10;7.13;;;2.78;;
76953;SDS011;65893;51.698;-0.292;2024-02-26T02:48:36;11.38;;;3.10;;
76953;SDS011;65893;51.698;-0.292;2024-02-26T02:51:03;9.63;;;2.75;;
76953;SDS011;65893;51.698;-0.292;2024-02-26T02:53:29;8.73;;;3.47;;
76953;SDS011;65893;51.698;-0.292;2024-02-26T02:55:55;6.88;;;2.08;;
76953;SDS011;65893;51.698;-0.292;2024-02-26T02:58:21;8.02;;;3.47;;
76953;SDS011;65893;51.698;-0.292;2024-02-26T03:00:47;8.95;;;2.97;;
76953;SDS011;65893;51.698;-0.292;2024-02-26T03:03:13;6.40;;;2.45;;
76953;SDS011;65893;51.698;-0.292;2024-02-26T03:05:39;13.88;;;3.22;;
76953;SDS011;65893;51.698;-0.292;2024-02-26T03:08:05;8.85;;;2.55;;
76953;SDS011;65893;51.698;-0.292;2024-02-26T03:10:31;10.38;;;2.42;;
76953;SDS011;65893;51.698;-0.292;2024-02-26T03:12:57;8.82;;;2.00;;
76953;SDS011;65893;51.698;-0.292;2024-02-26T03:15:23;10.23;;;1.95;;
76953;SDS011;65893;51.698;-0.292;2024-02-26T03:17:49;5.78;;;1.90;;
76953;SDS011;65893;51.698;-0.292;2024-02-26T03:20:15;8.05;;;1.95;;
76953;SDS011;65893;51.698;-0.292;2024-02-26T03:22:44;7.50;;;2.47;;
76953;SDS011;65893;51.698;-0.292;2024-02-26T03:25:10;6.75;;;2.30;;
76953;SDS011;65893;51.698;-0.292;2024-02-26T03:27:36;6.95;;;2.40;;
76953;SDS011;65893;51.698;-0.292;2024-02-26T03:30:02;6.95;;;2.95;;
76953;SDS011;65893;51.698;-0.292;2024-02-26T03:32:28;10.05;;;2.65;;
76953;SDS011;65893;51.698;-0.292;2024-02-26T03:34:54;18.40;;;2.75;;
76953;SDS011;65893;51.698;-0.292;2024-02-26T03:37:21;6.65;;;2.03;;
76953;SDS011;65893;51.698;-0.292;2024-02-26T03:39:47;8.27;;;2.80;;
76953;SDS011;65893;51.698;-0.292;2024-02-26T03:42:13;9.10;;;2.80;;
76953;SDS011;65893;51.698;-0.292;2024-02-26T03:44:39;6.78;;;2.22;;
76953;SDS011;65893;51.698;-0.292;2024-02-26T03:47:05;7.18;;;2.47;;
76953;SDS011;65893;51.698;-0.292;2024-02-26T03:49:31;9.30;;;3.15;;
76953;SDS011;65893;51.698;-0.292;2024-02-26T03:51:57;7.55;;;2.15;;
76953;SDS011;65893;51.698;-0.292;2024-02-26T03:54:23;8.35;;;1.75;;
76953;SDS011;65893;51.698;-0.292;2024-02-26T03:56:49;6.15;;;2.13;;
76953;SDS011;65893;51.698;-0.292;2024-02-26T03:59:15;7.90;;;2.42;;
76953;SDS011;65893;51.698;-0.292;2024-02-26T04:01:48;6.20;;;1.67;;
76953;SDS011;65893;51.698;-0.292;2024-02-26T04:04:14;5.20;;;1.70;;
76953;SDS011;65893;51.698;-0.292;2024-02-26T04:06:43;7.63;;;2.38;;
76953;SDS011;65893;51.698;-0.292;2024-02-26T04:09:10;5.30;;;1.77;;
76953;SDS011;65893;51.698;-0.292;2024-02-26T04:11:36;7.50;;;2.20;;
76953;SDS011;65893;51.698;-0.292;2024-02-26T04:14:02;10.57;;;1.83;;
76953;SDS011;65893;51.698;-0.292;2024-02-26T04:16:28;7.07;;;2.00;;
76953;SDS011;65893;51.698;-0.292;2024-02-26T04:18:55;6.88;;;2.25;;
76953;SDS011;65893;51.698;-0.292;2024-02-26T04:21:21;9.52;;;1.90;;
76953;SDS011;65893;51.698;-0.292;2024-02-26T04:23:47;8.13;;;2.30;;
76953;SDS011;65893;51.698;-0.292;2024-02-26T04:26:14;6.72;;;1.75;;
76953;SDS011;65893;51.698;-0.292;2024-02-26T04:28:40;6.70;;;1.77;;
76953;SDS011;65893;51.698;-0.292;2024-02-26T04:31:06;5.50;;;1.63;;
76953;SDS011;65893;51.698;-0.292;2024-02-26T04:33:35;7.40;;;1.90;;
76953;SDS011;65893;51.698;-0.292;2024-02-26T04:36:02;5.82;;;1.63;;
76953;SDS011;65893;51.698;-0.292;2024-02-26T04:38:28;6.95;;;2.25;;
76953;SDS011;65893;51.698;-0.292;2024-02-26T04:40:54;5.40;;;1.60;;
76953;SDS011;65893;51.698;-0.292;2024-02-26T04:43:20;5.20;;;1.83;;
76953;SDS011;65893;51.698;-0.292;2024-02-26T04:45:46;4.45;;;1.85;;
76953;SDS011;65893;51.698;-0.292;2024-02-26T04:48:12;6.13;;;1.55;;
76953;SDS011;65893;51.698;-0.292;2024-02-26T04:50:38;4.50;;;1.40;;
76953;SDS011;65893;51.698;-0.292;2024-02-26T04:53:04;4.35;;;1.13;;
76953;SDS011;65893;51.698;-0.292;2024-02-26T04:55:30;5.55;;;1.58;;
76953;SDS011;65893;51.698;-0.292;2024-02-26T04:57:56;8.50;;;1.75;;
76953;SDS011;65893;51.698;-0.292;2024-02-26T05:00:22;7.05;;;1.48;;
76953;SDS011;65893;51.698;-0.292;2024-02-26T05:02:48;5.20;;;1.52;;
76953;SDS011;65893;51.698;-0.292;2024-02-26T05:05:14;4.88;;;1.48;;
76953;SDS011;65893;51.698;-0.292;2024-02-26T05:07:40;7.55;;;1.13;;
76953;SDS011;65893;51.698;-0.292;2024-02-26T05:10:07;6.05;;;1.45;;
76953;SDS011;65893;51.698;-0.292;2024-02-26T05:12:33;7.15;;;2.55;;
76953;SDS011;65893;51.698;-0.292;2024-02-26T05:15:01;7.10;;;1.80;;
76953;SDS011;65893;51.698;-0.292;2024-02-26T05:17:27;7.50;;;1.40;;
76953;SDS011;65893;51.698;-0.292;2024-02-26T05:19:53;6.55;;;1.63;;
76953;SDS011;65893;51.698;-0.292;2024-02-26T05:22:19;4.22;;;1.33;;
76953;SDS011;65893;51.698;-0.292;2024-02-26T05:24:45;4.00;;;1.23;;
76953;SDS011;65893;51.698;-0.292;2024-02-26T05:27:11;7.82;;;1.58;;
76953;SDS011;65893;51.698;-0.292;2024-02-26T05:29:37;6.88;;;1.42;;
76953;SDS011;65893;51.698;-0.292;2024-02-26T05:32:04;8.98;;;1.50;;
76953;SDS011;65893;51.698;-0.292;2024-02-26T05:34:30;4.68;;;1.40;;
76953;SDS011;65893;51.698;-0.292;2024-02-26T05:36:57;6.03;;;1.50;;
76953;SDS011;65893;51.698;-0.292;2024-02-26T05:39:23;6.95;;;1.58;;
76953;SDS011;65893;51.698;-0.292;2024-02-26T05:41:49;7.38;;;1.65;;
76953;SDS011;65893;51.698;-0.292;2024-02-26T05:44:15;3.67;;;1.02;;
76953;SDS011;65893;51.698;-0.292;2024-02-26T05:46:41;3.00;;;1.30;;
76953;SDS011;65893;51.698;-0.292;2024-02-26T05:49:07;6.03;;;1.08;;
76953;SDS011;65893;51.698;-0.292;2024-02-26T05:51:33;5.07;;;1.30;;
76953;SDS011;65893;51.698;-0.292;2024-02-26T05:53:59;11.85;;;2.67;;
76953;SDS011;65893;51.698;-0.292;2024-02-26T05:56:25;5.00;;;1.17;;
76953;SDS011;65893;51.698;-0.292;2024-02-26T05:58:51;4.78;;;1.10;;
76953;SDS011;65893;51.698;-0.292;2024-02-26T06:01:20;2.20;;;0.80;;
76953;SDS011;65893;51.698;-0.292;2024-02-26T06:03:46;3.13;;;1.00;;
76953;SDS011;65893;51.698;-0.292;2024-02-26T06:06:12;3.70;;;0.90;;
76953;SDS011;65893;51.698;-0.292;2024-02-26T06:08:40;4.38;;;1.10;;
76953;SDS011;65893;51.698;-0.292;2024-02-26T06:11:06;6.13;;;1.10;;
76953;SDS011;65893;51.698;-0.292;2024-02-26T06:13:32;6.55;;;0.98;;
76953;SDS011;65893;51.698;-0.292;2024-02-26T06:15:58;3.50;;;0.95;;
76953;SDS011;65893;51.698;-0.292;2024-02-26T06:18:24;2.95;;;0.50;;
76953;SDS011;65893;51.698;-0.292;2024-02-26T06:20:50;5.13;;;1.02;;
76953;SDS011;65893;51.698;-0.292;2024-02-26T06:23:16;4.40;;;1.20;;
76953;SDS011;65893;51.698;-0.292;2024-02-26T06:25:42;4.57;;;0.95;;
76953;SDS011;65893;51.698;-0.292;2024-02-26T06:28:08;7.13;;;0.90;;
76953;SDS011;65893;51.698;-0.292;2024-02-26T06:30:34;6.63;;;1.40;;
76953;SDS011;65893;51.698;-0.292;2024-02-26T06:33:01;5.20;;;1.73;;
76953;SDS011;65893;51.698;-0.292;2024-02-26T06:35:28;5.60;;;1.33;;
76953;SDS011;65893;51.698;-0.292;2024-02-26T06:37:54;3.78;;;1.10;;
76953;SDS011;65893;51.698;-0.292;2024-02-26T06:40:20;5.78;;;0.98;;
76953;SDS011;65893;51.698;-0.292;2024-02-26T06:42:47;3.67;;;1.13;;
76953;SDS011;65893;51.698;-0.292;2024-02-26T06:45:13;5.05;;;1.20;;
76953;SDS011;65893;51.698;-0.292;2024-02-26T06:47:39;6.03;;;1.60;;
76953;SDS011;65893;51.698;-0.292;2024-02-26T06:50:05;6.82;;;1.35;;
76953;SDS011;65893;51.698;-0.292;2024-02-26T06:52:31;6.15;;;1.23;;
76953;SDS011;65893;51.698;-0.292;2024-02-26T06:54:57;6.82;;;1.38;;
76953;SDS011;65893;51.698;-0.292;2024-02-26T06:57:23;6.70;;;1.20;;
76953;SDS011;65893;51.698;-0.292;2024-02-26T06:59:49;3.50;;;0.88;;
76953;SDS011;65893;51.698;-0.292;2024-02-26T07:02:15;11.05;;;1.55;;
76953;SDS011;65893;51.698;-0.292;2024-02-26T07:04:42;10.50;;;1.48;;
76953;SDS011;65893;51.698;-0.292;2024-02-26T07:07:08;7.97;;;1.63;;
76953;SDS011;65893;51.698;-0.292;2024-02-26T07:09:35;4.57;;;1.25;;
76953;SDS011;65893;51.698;-0.292;2024-02-26T07:12:01;7.63;;;1.38;;
76953;SDS011;65893;51.698;-0.292;2024-02-26T07:14:27;3.58;;;0.98;;
76953;SDS011;65893;51.698;-0.292;2024-02-26T07:16:53;4.38;;;1.20;;
76953;SDS011;65893;51.698;-0.292;2024-02-26T07:19:19;6.13;;;0.82;;
76953;SDS011;65893;51.698;-0.292;2024-02-26T07:21:45;6.38;;;1.50;;
76953;SDS011;65893;51.698;-0.292;2024-02-26T07:24:11;5.07;;;1.30;;
76953;SDS011;65893;51.698;-0.292;2024-02-26T07:26:37;5.63;;;1.50;;
76953;SDS011;65893;51.698;-0.292;2024-02-26T07:29:03;3.20;;;1.00;;
76953;SDS011;65893;51.698;-0.292;2024-02-26T07:31:30;6.28;;;1.38;;
76953;SDS011;65893;51.698;-0.292;2024-02-26T07:33:56;6.30;;;1.33;;
76953;SDS011;65893;51.698;-0.292;2024-02-26T07:36:22;6.82;;;1.70;;
76953;SDS011;65893;51.698;-0.292;2024-02-26T07:38:48;7.22;;;1.48;;
76953;SDS011;65893;51.698;-0.292;2024-02-26T07:41:14;3.33;;;0.85;;
76953;SDS011;65893;51.698;-0.292;2024-02-26T07:43:40;9.90;;;1.48;;
76953;SDS011;65893;51.698;-0.292;2024-02-26T07:46:06;2.78;;;1.10;;
76953;SDS011;65893;51.698;-0.292;2024-02-26T07:48:32;2.83;;;0.73;;
76953;SDS011;65893;51.698;-0.292;2024-02-26T07:50:59;5.32;;;1.20;;
76953;SDS011;65893;51.698;-0.292;2024-02-26T07:53:25;5.50;;;0.90;;
76953;SDS011;65893;51.698;-0.292;2024-02-26T07:55:51;2.47;;;0.70;;
76953;SDS011;65893;51.698;-0.292;2024-02-26T07:58:17;4.03;;;1.13;;
76953;SDS011;65893;51.698;-0.292;2024-02-26T08:00:43;5.13;;;1.15;;
76953;SDS011;65893;51.698;-0.292;2024-02-26T08:03:11;8.00;;;0.90;;
76953;SDS011;65893;51.698;-0.292;2024-02-26T08:05:38;5.78;;;1.40;;
76953;SDS011;65893;51.698;-0.292;2024-02-26T08:08:05;4.75;;;1.05;;
76953;SDS011;65893;51.698;-0.292;2024-02-26T08:10:32;2.97;;;0.80;;
76953;SDS011;65893;51.698;-0.292;2024-02-26T08:12:58;3.55;;;1.05;;
76953;SDS011;65893;51.698;-0.292;2024-02-26T08:15:30;2.88;;;1.10;;
76953;SDS011;65893;51.698;-0.292;2024-02-26T08:17:56;2.70;;;0.80;;
76953;SDS011;65893;51.698;-0.292;2024-02-26T08:20:22;5.25;;;1.50;;
76953;SDS011;65893;51.698;-0.292;2024-02-26T08:22:48;2.13;;;0.73;;
76953;SDS011;65893;51.698;-0.292;2024-02-26T08:25:14;5.25;;;1.63;;
76953;SDS011;65893;51.698;-0.292;2024-02-26T08:27:41;2.33;;;0.80;;
76953;SDS011;65893;51.698;-0.292;2024-02-26T08:30:08;6.95;;;0.73;;
76953;SDS011;65893;51.698;-0.292;2024-02-26T08:32:34;7.60;;;1.08;;
76953;SDS011;65893;51.698;-0.292;2024-02-26T08:35:00;8.18;;;1.20;;
76953;SDS011;65893;51.698;-0.292;2024-02-26T08:37:26;10.63;;;1.45;;
76953;SDS011;65893;51.698;-0.292;2024-02-26T08:39:52;7.82;;;1.00;;
76953;SDS011;65893;51.698;-0.292;2024-02-26T08:42:18;8.52;;;1.50;;
76953;SDS011;65893;51.698;-0.292;2024-02-26T08:44:44;5.78;;;0.85;;
76953;SDS011;65893;51.698;-0.292;2024-02-26T08:47:10;3.15;;;0.68;;
76953;SDS011;65893;51.698;-0.292;2024-02-26T08:49:36;10.95;;;1.50;;
76953;SDS011;65893;51.698;-0.292;2024-02-26T08:52:02;5.78;;;1.10;;
76953;SDS011;65893;51.698;-0.292;2024-02-26T08:54:30;6.15;;;1.20;;
76953;SDS011;65893;51.698;-0.292;2024-02-26T08:56:57;7.53;;;1.30;;
76953;SDS011;65893;51.698;-0.292;2024-02-26T08:59:23;4.55;;;0.95;;
76953;SDS011;65893;51.698;-0.292;2024-02-26T09:01:49;5.20;;;1.30;;
76953;SDS011;65893;51.698;-0.292;2024-02-26T09:04:15;4.70;;;1.17;;
76953;SDS011;65893;51.698;-0.292;2024-02-26T09:06:41;3.17;;;0.85;;
76953;SDS011;65893;51.698;-0.292;2024-02-26T09:09:07;6.30;;;0.98;;
76953;SDS011;65893;51.698;-0.292;2024-02-26T09:11:33;3.33;;;1.10;;
76953;SDS011;65893;51.698;-0.292;2024-02-26T09:13:59;5.65;;;1.38;;
76953;SDS011;65893;51.698;-0.292;2024-02-26T09:16:25;3.58;;;0.80;;
76953;SDS011;65893;51.698;-0.292;2024-02-26T09:18:51;3.60;;;1.27;;
76953;SDS011;65893;51.698;-0.292;2024-02-26T09:21:17;4.30;;;0.82;;
76953;SDS011;65893;51.698;-0.292;2024-02-26T09:23:48;2.20;;;0.47;;
76953;SDS011;65893;51.698;-0.292;2024-02-26T09:26:14;9.02;;;1.10;;
76953;SDS011;65893;51.698;-0.292;2024-02-26T09:28:40;3.53;;;1.13;;
76953;SDS011;65893;51.698;-0.292;2024-02-26T09:31:06;6.30;;;1.73;;
76953;SDS011;65893;51.698;-0.292;2024-02-26T09:33:32;7.93;;;1.23;;
76953;SDS011;65893;51.698;-0.292;2024-02-26T09:35:58;3.42;;;0.80;;
76953;SDS011;65893;51.698;-0.292;2024-02-26T09:38:25;3.20;;;0.88;;
76953;SDS011;65893;51.698;-0.292;2024-02-26T09:40:51;4.07;;;0.85;;
76953;SDS011;65893;51.698;-0.292;2024-02-26T09:43:17;6.32;;;1.00;;
76953;SDS011;65893;51.698;-0.292;2024-02-26T09:45:47;6.00;;;1.25;;
76953;SDS011;65893;51.698;-0.292;2024-02-26T09:48:13;3.80;;;1.00;;
76953;SDS011;65893;51.698;-0.292;2024-02-26T09:50:41;5.07;;;0.90;;
76953;SDS011;65893;51.698;-0.292;2024-02-26T09:53:11;2.92;;;0.80;;
76953;SDS011;65893;51.698;-0.292;2024-02-26T09:55:39;2.45;;;0.65;;
76953;SDS011;65893;51.698;-0.292;2024-02-26T09:58:05;2.00;;;0.57;;
76953;SDS011;65893;51.698;-0.292;2024-02-26T10:00:32;1.63;;;0.35;;
76953;SDS011;65893;51.698;-0.292;2024-02-26T10:03:05;3.78;;;0.60;;
76953;SDS011;65893;51.698;-0.292;2024-02-26T10:05:31;1.98;;;0.60;;
76953;SDS011;65893;51.698;-0.292;2024-02-26T10:07:57;3.00;;;0.85;;
76953;SDS011;65893;51.698;-0.292;2024-02-26T10:10:26;2.38;;;0.68;;
76953;SDS011;65893;51.698;-0.292;2024-02-26T10:12:53;8.48;;;1.65;;
76953;SDS011;65893;51.698;-0.292;2024-02-26T10:15:20;2.35;;;0.73;;
76953;SDS011;65893;51.698;-0.292;2024-02-26T10:17:46;2.65;;;0.88;;
76953;SDS011;65893;51.698;-0.292;2024-02-26T10:20:13;5.40;;;0.70;;
76953;SDS011;65893;51.698;-0.292;2024-02-26T10:22:46;3.22;;;0.60;;
76953;SDS011;65893;51.698;-0.292;2024-02-26T10:25:13;4.03;;;0.75;;
76953;SDS011;65893;51.698;-0.292;2024-02-26T10:27:40;5.90;;;0.98;;
76953;SDS011;65893;51.698;-0.292;2024-02-26T10:30:20;5.90;;;1.30;;
76953;SDS011;65893;51.698;-0.292;2024-02-26T10:32:46;2.15;;;0.63;;
76953;SDS011;65893;51.698;-0.292;2024-02-26T10:35:13;5.07;;;0.88;;
76953;SDS011;65893;51.698;-0.292;2024-02-26T10:37:40;2.95;;;0.60;;
76953;SDS011;65893;51.698;-0.292;2024-02-26T10:40:08;5.57;;;1.00;;
76953;SDS011;65893;51.698;-0.292;2024-02-26T10:42:35;1.38;;;0.60;;
76953;SDS011;65893;51.698;-0.292;2024-02-26T10:45:02;5.13;;;1.10;;
76953;SDS011;65893;51.698;-0.292;2024-02-26T10:47:29;4.05;;;0.98;;
76953;SDS011;65893;51.698;-0.292;2024-02-26T10:49:55;2.28;;;1.20;;
76953;SDS011;65893;51.698;-0.292;2024-02-26T10:52:21;5.47;;;0.90;;
76953;SDS011;65893;51.698;-0.292;2024-02-26T10:54:50;5.53;;;1.00;;
76953;SDS011;65893;51.698;-0.292;2024-02-26T10:57:19;5.40;;;1.17;;
76953;SDS011;65893;51.698;-0.292;2024-02-26T10:59:48;5.70;;;0.93;;
76953;SDS011;65893;51.698;-0.292;2024-02-26T11:02:14;4.40;;;0.70;;
76953;SDS011;65893;51.698;-0.292;2024-02-26T11:04:41;3.47;;;0.98;;
76953;SDS011;65893;51.698;-0.292;2024-02-26T11:07:08;3.42;;;0.98;;
76953;SDS011;65893;51.698;-0.292;2024-02-26T11:09:35;5.55;;;0.60;;
76953;SDS011;65893;51.698;-0.292;2024-02-26T11:12:08;2.53;;;0.70;;
76953;SDS011;65893;51.698;-0.292;2024-02-26T11:14:37;6.13;;;1.00;;
76953;SDS011;65893;51.698;-0.292;2024-02-26T11:17:04;6.15;;;1.25;;
76953;SDS011;65893;51.698;-0.292;2024-02-26T11:19:31;2.47;;;1.00;;
76953;SDS011;65893;51.698;-0.292;2024-02-26T11:22:01;6.80;;;1.05;;
76953;SDS011;65893;51.698;-0.292;2024-02-26T11:24:27;1.17;;;0.70;;
76953;SDS011;65893;51.698;-0.292;2024-02-26T11:26:58;2.25;;;0.65;;
76953;SDS011;65893;51.698;-0.292;2024-02-26T11:29:44;5.63;;;0.93;;
76953;SDS011;65893;51.698;-0.292;2024-02-26T11:32:13;2.17;;;0.70;;
76953;SDS011;65893;51.698;-0.292;2024-02-26T11:34:39;3.70;;;0.70;;
76953;SDS011;65893;51.698;-0.292;2024-02-26T11:37:09;4.97;;;0.75;;
76953;SDS011;65893;51.698;-0.292;2024-02-26T11:39:35;3.70;;;1.17;;
76953;SDS011;65893;51.698;-0.292;2024-02-26T11:42:07;4.18;;;0.95;;
76953;SDS011;65893;51.698;-0.292;2024-02-26T11:44:34;5.15;;;0.95;;
76953;SDS011;65893;51.698;-0.292;2024-02-26T11:47:17;3.08;;;0.60;;
76953;SDS011;65893;51.698;-0.292;2024-02-26T11:49:44;4.13;;;0.77;;
76953;SDS011;65893;51.698;-0.292;2024-02-26T11:52:10;3.67;;;0.70;;
76953;SDS011;65893;51.698;-0.292;2024-02-26T11:57:21;4.25;;;1.20;;
76953;SDS011;65893;51.698;-0.292;2024-02-26T11:59:47;7.32;;;0.90;;
76953;SDS011;65893;51.698;-0.292;2024-02-26T12:04:59;4.65;;;0.68;;
76953;SDS011;65893;51.698;-0.292;2024-02-26T12:07:25;4.75;;;1.00;;
76953;SDS011;65893;51.698;-0.292;2024-02-26T12:09:56;2.25;;;0.52;;
76953;SDS011;65893;51.698;-0.292;2024-02-26T12:12:39;2.53;;;0.60;;
76953;SDS011;65893;51.698;-0.292;2024-02-26T12:15:06;2.53;;;0.70;;
76953;SDS011;65893;51.698;-0.292;2024-02-26T12:17:36;4.95;;;0.93;;
76953;SDS011;65893;51.698;-0.292;2024-02-26T12:20:09;7.47;;;1.50;;
76953;SDS011;65893;51.698;-0.292;2024-02-26T12:22:35;8.48;;;0.80;;
76953;SDS011;65893;51.698;-0.292;2024-02-26T12:25:03;4.53;;;0.73;;
76953;SDS011;65893;51.698;-0.292;2024-02-26T12:27:30;8.20;;;1.00;;
76953;SDS011;65893;51.698;-0.292;2024-02-26T12:29:57;5.72;;;0.68;;
76953;SDS011;65893;51.698;-0.292;2024-02-26T12:32:23;3.90;;;0.98;;
76953;SDS011;65893;51.698;-0.292;2024-02-26T12:34:49;5.65;;;0.60;;
76953;SDS011;65893;51.698;-0.292;2024-02-26T12:37:16;6.30;;;0.95;;
76953;SDS011;65893;51.698;-0.292;2024-02-26T12:39:42;3.55;;;0.80;;
76953;SDS011;65893;51.698;-0.292;2024-02-26T12:42:08;2.92;;;0.88;;
76953;SDS011;65893;51.698;-0.292;2024-02-26T12:44:35;3.10;;;0.50;;
76953;SDS011;65893;51.698;-0.292;2024-02-26T12:47:01;1.00;;;0.32;;
76953;SDS011;65893;51.698;-0.292;2024-02-26T12:49:28;3.25;;;0.90;;
76953;SDS011;65893;51.698;-0.292;2024-02-26T12:51:54;5.20;;;0.90;;
76953;SDS011;65893;51.698;-0.292;2024-02-26T12:54:26;4.57;;;0.70;;
76953;SDS011;65893;51.698;-0.292;2024-02-26T12:56:52;2.50;;;0.60;;
76953;SDS011;65893;51.698;-0.292;2024-02-26T12:59:20;2.38;;;0.80;;
76953;SDS011;65893;51.698;-0.292;2024-02-26T13:01:46;3.22;;;0.63;;
76953;SDS011;65893;51.698;-0.292;2024-02-26T13:04:12;5.72;;;0.93;;
76953;SDS011;65893;51.698;-0.292;2024-02-26T13:06:38;4.30;;;0.57;;
76953;SDS011;65893;51.698;-0.292;2024-02-26T13:09:04;7.10;;;1.00;;
76953;SDS011;65893;51.698;-0.292;2024-02-26T13:11:31;1.80;;;0.47;;
76953;SDS011;65893;51.698;-0.292;2024-02-26T13:13:58;1.63;;;0.50;;
76953;SDS011;65893;51.698;-0.292;2024-02-26T13:16:24;4.72;;;0.70;;
76953;SDS011;65893;51.698;-0.292;2024-02-26T13:18:51;9.43;;;1.35;;
76953;SDS011;65893;51.698;-0.292;2024-02-26T13:21:18;8.65;;;1.20;;
76953;SDS011;65893;51.698;-0.292;2024-02-26T13:23:47;5.43;;;1.00;;
76953;SDS011;65893;51.698;-0.292;2024-02-26T13:26:15;6.82;;;1.58;;
76953;SDS011;65893;51.698;-0.292;2024-02-26T13:28:41;5.25;;;0.93;;
76953;SDS011;65893;51.698;-0.292;2024-02-26T13:31:08;3.83;;;0.70;;
76953;SDS011;65893;51.698;-0.292;2024-02-26T13:33:34;2.95;;;0.82;;
76953;SDS011;65893;51.698;-0.292;2024-02-26T13:36:02;5.72;;;0.93;;
76953;SDS011;65893;51.698;-0.292;2024-02-26T13:38:28;6.40;;;0.75;;
76953;SDS011;65893;51.698;-0.292;2024-02-26T13:40:54;4.60;;;0.47;;
76953;SDS011;65893;51.698;-0.292;2024-02-26T13:43:21;4.50;;;1.05;;
76953;SDS011;65893;51.698;-0.292;2024-02-26T13:45:47;1.45;;;0.45;;
76953;SDS011;65893;51.698;-0.292;2024-02-26T13:48:13;5.47;;;0.80;;
76953;SDS011;65893;51.698;-0.292;2024-02-26T13:50:39;7.97;;;0.90;;
76953;SDS011;65893;51.698;-0.292;2024-02-26T13:53:05;2.67;;;0.68;;
76953;SDS011;65893;51.698;-0.292;2024-02-26T13:55:31;6.53;;;0.93;;
76953;SDS011;65893;51.698;-0.292;2024-02-26T13:57:58;6.18;;;0.95;;
76953;SDS011;65893;51.698;-0.292;2024-02-26T14:00:26;2.80;;;0.82;;
76953;SDS011;65893;51.698;-0.292;2024-02-26T14:02:53;3.03;;;0.50;;
76953;SDS011;65893;51.698;-0.292;2024-02-26T14:05:19;6.57;;;1.40;;
76953;SDS011;65893;51.698;-0.292;2024-02-26T14:07:45;3.30;;;0.63;;
76953;SDS011;65893;51.698;-0.292;2024-02-26T14:10:11;6.35;;;0.93;;
76953;SDS011;65893;51.698;-0.292;2024-02-26T14:12:38;5.50;;;0.77;;
76953;SDS011;65893;51.698;-0.292;2024-02-26T14:15:07;4.55;;;0.80;;
76953;SDS011;65893;51.698;-0.292;2024-02-26T14:17:33;2.03;;;0.68;;
76953;SDS011;65893;51.698;-0.292;2024-02-26T14:19:59;6.22;;;0.70;;
76953;SDS011;65893;51.698;-0.292;2024-02-26T14:22:25;6.25;;;0.77;;
76953;SDS011;65893;51.698;-0.292;2024-02-26T14:24:52;4.38;;;0.60;;
76953;SDS011;65893;51.698;-0.292;2024-02-26T14:27:18;5.10;;;0.70;;
76953;SDS011;65893;51.698;-0.292;2024-02-26T14:29:47;5.32;;;0.90;;
76953;SDS011;65893;51.698;-0.292;2024-02-26T14:32:13;2.80;;;0.93;;
76953;SDS011;65893;51.698;-0.292;2024-02-26T14:34:39;3.97;;;1.13;;